Time;durP1;ratioP1;P1;durP2;ratioP2;P2;SDS_P1;SDS_P2;PMS_P1;PMS_P2;Temp;Humidity;BMP_temperature;BMP_pressure;BME280_temperature;BME280_humidity;BME280_pressure;Samples;Min_cycle;Max_cycle;Signal;HPM_P1;HPM_P2
2021/03/08 00:02:26;;;;;;;14.60;5.50;;;3.90;99.90;;;;;;4977933;28;20211;-83
2021/03/08 00:04:59;;;;;;;16.50;5.30;;;3.90;99.90;;;;;;4967858;28;20227;-83
2021/03/08 00:07:25;;;;;;;23.23;8.45;;;4.00;99.90;;;;;;4973093;28;20294;-83
2021/03/08 00:09:52;;;;;;;17.77;6.25;;;3.90;99.90;;;;;;4972708;28;20306;-84
2021/03/08 00:12:19;;;;;;;16.05;6.32;;;3.80;99.90;;;;;;4975970;28;20209;-83
2021/03/08 00:14:45;;;;;;;16.67;5.68;;;3.80;99.90;;;;;;4985001;28;20213;-83
2021/03/08 00:17:13;;;;;;;30.38;8.18;;;3.80;99.90;;;;;;4988385;28;20198;-79
2021/03/08 00:19:40;;;;;;;16.27;7.25;;;3.80;99.90;;;;;;4987263;28;20253;-83
2021/03/08 00:22:07;;;;;;;17.88;6.55;;;3.80;99.90;;;;;;4974704;28;20223;-84
2021/03/08 00:24:34;;;;;;;19.85;5.97;;;3.80;99.90;;;;;;4977650;28;20317;-85
2021/03/08 00:27:01;;;;;;;16.45;7.32;;;3.70;99.90;;;;;;4966995;28;20277;-82
2021/03/08 00:29:28;;;;;;;26.63;7.50;;;3.70;99.90;;;;;;4975063;28;20229;-82
2021/03/08 00:31:54;;;;;;;23.55;7.35;;;3.70;99.90;;;;;;4986451;28;20244;-83
2021/03/08 00:34:22;;;;;;;23.60;8.05;;;3.70;99.90;;;;;;4982980;28;20261;-86
2021/03/08 00:36:49;;;;;;;18.13;7.40;;;3.60;99.90;;;;;;4972645;28;20221;-81
2021/03/08 00:39:15;;;;;;;17.95;6.85;;;3.60;99.90;;;;;;4973627;28;20231;-82
2021/03/08 00:41:42;;;;;;;22.55;7.80;;;3.60;99.90;;;;;;4980510;28;20674;-83
2021/03/08 00:44:09;;;;;;;12.70;5.70;;;3.60;99.90;;;;;;4976205;28;20240;-84
2021/03/08 00:46:36;;;;;;;26.17;7.18;;;3.60;99.90;;;;;;4985449;28;20238;-82
2021/03/08 00:49:04;;;;;;;18.15;5.38;;;3.60;99.90;;;;;;4975518;28;20312;-83
2021/03/08 00:51:31;;;;;;;19.23;6.35;;;3.50;99.90;;;;;;4981785;28;20330;-82
2021/03/08 00:53:58;;;;;;;22.95;7.85;;;3.50;99.90;;;;;;4974736;28;20202;-82
2021/03/08 00:56:25;;;;;;;11.43;6.03;;;3.50;99.90;;;;;;4977754;28;20302;-85
2021/03/08 00:58:51;;;;;;;20.77;6.50;;;3.50;99.90;;;;;;4981422;28;20234;-84
2021/03/08 01:01:18;;;;;;;30.38;6.55;;;3.50;99.90;;;;;;4979392;28;20271;-82
2021/03/08 01:03:45;;;;;;;21.88;8.15;;;3.40;99.90;;;;;;4974448;28;20236;-84
2021/03/08 01:06:11;;;;;;;23.33;6.50;;;3.40;99.90;;;;;;4983436;28;20229;-83
2021/03/08 01:08:39;;;;;;;15.98;5.75;;;3.40;99.90;;;;;;4976257;28;20692;-83
2021/03/08 01:11:06;;;;;;;9.90;5.47;;;3.40;99.90;;;;;;4981286;28;20268;-83
2021/03/08 01:13:32;;;;;;;16.23;6.43;;;3.40;99.90;;;;;;4981757;28;20235;-84
2021/03/08 01:15:59;;;;;;;24.15;7.43;;;3.30;99.90;;;;;;4983435;28;20649;-82
2021/03/08 01:18:27;;;;;;;14.90;5.38;;;3.30;99.90;;;;;;4988241;28;20249;-82
2021/03/08 01:20:53;;;;;;;15.68;5.47;;;3.30;99.90;;;;;;4982717;28;20266;-83
2021/03/08 01:23:20;;;;;;;14.32;5.78;;;3.20;99.90;;;;;;4970161;28;20277;-84
2021/03/08 01:25:48;;;;;;;21.90;6.85;;;3.20;99.90;;;;;;4975041;28;20640;-84
2021/03/08 01:28:14;;;;;;;19.67;6.40;;;3.20;99.90;;;;;;4979601;28;20229;-82
2021/03/08 01:30:44;;;;;;;15.48;4.97;;;3.20;99.90;;;;;;4983599;28;20234;-84
2021/03/08 01:33:11;;;;;;;31.65;9.55;;;3.20;99.90;;;;;;4979128;28;20290;-81
2021/03/08 01:35:39;;;;;;;21.27;6.10;;;3.20;99.90;;;;;;4980065;28;20230;-81
2021/03/08 01:38:06;;;;;;;18.13;6.38;;;3.20;99.90;;;;;;4985448;28;20218;-81
2021/03/08 01:40:36;;;;;;;12.77;5.10;;;3.20;99.90;;;;;;4990201;28;20217;-81
2021/03/08 01:43:04;;;;;;;19.90;6.93;;;3.00;99.90;;;;;;4985674;28;20210;-81
2021/03/08 01:45:31;;;;;;;11.60;5.55;;;3.20;99.90;;;;;;4991666;28;20213;-81
2021/03/08 01:47:57;;;;;;;14.60;5.63;;;3.20;99.90;;;;;;4983902;28;20242;-80
2021/03/08 01:50:29;;;;;;;18.50;6.70;;;3.20;99.90;;;;;;4986773;28;20283;-81
2021/03/08 01:52:57;;;;;;;12.13;5.50;;;3.20;99.90;;;;;;4990188;28;20312;-79
2021/03/08 01:55:24;;;;;;;19.85;6.07;;;3.20;99.90;;;;;;4994797;28;20210;-80
2021/03/08 01:57:51;;;;;;;19.30;6.10;;;3.20;99.90;;;;;;4981266;28;20191;-79
2021/03/08 02:00:20;;;;;;;18.13;5.05;;;3.20;99.90;;;;;;4977449;28;20200;-85
2021/03/08 02:02:47;;;;;;;13.70;5.07;;;3.20;99.90;;;;;;4976912;28;20234;-85
2021/03/08 02:05:15;;;;;;;17.65;5.78;;;3.20;99.90;;;;;;4993233;28;20226;-84
2021/03/08 02:07:43;;;;;;;18.02;5.78;;;3.20;99.90;;;;;;4974916;28;20279;-81
2021/03/08 02:10:12;;;;;;;17.77;7.65;;;3.20;99.90;;;;;;4987202;28;20257;-84
2021/03/08 02:13:18;;;;;;;15.30;5.78;;;3.20;99.90;;;;;;4981894;28;20249;-82
2021/03/08 02:15:54;;;;;;;16.27;6.78;;;3.20;99.90;;;;;;4966832;28;20670;-82
2021/03/08 02:18:30;;;;;;;21.23;5.78;;;3.20;99.90;;;;;;4984749;28;20225;-84
2021/03/08 02:21:13;;;;;;;17.00;6.43;;;3.20;99.90;;;;;;4988976;28;20216;-78
2021/03/08 02:24:21;;;;;;;16.55;6.10;;;3.20;99.90;;;;;;4987915;28;20259;-82
2021/03/08 02:26:51;;;;;;;16.73;5.50;;;3.30;99.90;;;;;;4934298;29;20204;-85
2021/03/08 02:29:54;;;;;;;22.20;6.15;;;3.20;99.90;;;;;;4970870;28;20305;-83
2021/03/08 02:32:26;;;;;;;13.93;6.22;;;3.20;99.90;;;;;;4968142;28;20217;-84
2021/03/08 02:34:59;;;;;;;12.00;4.78;;;3.20;99.90;;;;;;4982602;28;20191;-83
2021/03/08 02:37:31;;;;;;;20.02;6.85;;;3.20;99.90;;;;;;4978072;28;20211;-82
2021/03/08 02:40:04;;;;;;;15.52;6.43;;;3.10;99.90;;;;;;4978312;28;20210;-82
2021/03/08 02:42:35;;;;;;;19.10;5.65;;;3.10;99.90;;;;;;4994043;28;20218;-81
2021/03/08 02:45:04;;;;;;;22.13;5.28;;;3.10;99.90;;;;;;4991712;28;20232;-81
2021/03/08 02:47:34;;;;;;;12.45;5.10;;;3.00;99.90;;;;;;4996844;28;20186;-81
2021/03/08 02:50:04;;;;;;;22.63;6.80;;;3.00;99.90;;;;;;4986329;28;20229;-80
2021/03/08 02:52:36;;;;;;;16.80;6.15;;;3.00;99.90;;;;;;4988371;28;20194;-79
2021/03/08 02:55:06;;;;;;;16.10;5.82;;;2.90;99.90;;;;;;4979048;28;20229;-80
2021/03/08 02:57:40;;;;;;;15.85;6.95;;;2.90;99.90;;;;;;4985313;28;20203;-78
2021/03/08 03:00:10;;;;;;;21.15;5.25;;;2.90;99.90;;;;;;4989735;28;20269;-79
2021/03/08 03:02:40;;;;;;;20.75;6.25;;;2.90;99.90;;;;;;4991809;28;20225;-79
2021/03/08 03:05:09;;;;;;;13.63;5.53;;;2.80;99.90;;;;;;4989611;28;20224;-79
2021/03/08 03:07:37;;;;;;;18.15;4.50;;;2.80;99.90;;;;;;4996829;28;20190;-78
2021/03/08 03:10:06;;;;;;;22.33;5.68;;;2.90;99.90;;;;;;4994219;28;20225;-79
2021/03/08 03:12:35;;;;;;;18.08;7.30;;;2.90;99.90;;;;;;4990627;28;20202;-81
2021/03/08 03:15:04;;;;;;;15.32;5.28;;;2.90;99.90;;;;;;4994608;28;20199;-81
2021/03/08 03:17:33;;;;;;;13.05;5.20;;;2.80;99.90;;;;;;4993186;28;20226;-79
2021/03/08 03:20:02;;;;;;;17.70;6.47;;;2.80;99.90;;;;;;4991407;28;20210;-81
2021/03/08 03:22:29;;;;;;;11.93;4.97;;;2.80;99.90;;;;;;4986072;28;20221;-80
2021/03/08 03:24:59;;;;;;;12.70;4.47;;;2.80;99.90;;;;;;4996030;28;20226;-79
2021/03/08 03:27:27;;;;;;;11.70;4.47;;;2.80;99.90;;;;;;4997543;28;20200;-79
2021/03/08 03:29:54;;;;;;;17.85;5.82;;;2.80;99.90;;;;;;4993187;28;20284;-82
2021/03/08 03:32:22;;;;;;;13.38;6.93;;;2.70;99.90;;;;;;4988935;28;20239;-82
2021/03/08 03:34:49;;;;;;;17.73;5.80;;;2.70;99.90;;;;;;4987010;28;20215;-78
2021/03/08 03:37:20;;;;;;;13.57;6.82;;;2.70;99.90;;;;;;4988127;28;20193;-81
2021/03/08 03:39:48;;;;;;;16.45;4.60;;;2.60;99.90;;;;;;4984166;28;20213;-84
2021/03/08 03:42:15;;;;;;;14.02;5.53;;;2.50;99.90;;;;;;4992165;28;20257;-86
2021/03/08 03:44:42;;;;;;;11.27;5.53;;;2.50;99.90;;;;;;4979061;28;20267;-85
2021/03/08 03:47:11;;;;;;;11.90;4.43;;;2.50;99.90;;;;;;4996772;28;20191;-86
2021/03/08 03:49:38;;;;;;;10.18;6.47;;;2.50;99.90;;;;;;4990247;28;20226;-84
2021/03/08 03:52:05;;;;;;;11.70;5.75;;;2.40;99.90;;;;;;4984885;28;20705;-83
2021/03/08 03:54:33;;;;;;;9.82;5.57;;;2.50;99.90;;;;;;4989125;28;20226;-82
2021/03/08 03:57:05;;;;;;;15.80;5.53;;;2.50;99.90;;;;;;4984235;28;20218;-82
2021/03/08 03:59:42;;;;;;;14.55;4.85;;;2.50;99.90;;;;;;4984437;28;20257;-83
2021/03/08 04:02:15;;;;;;;20.30;5.60;;;2.40;99.90;;;;;;4979159;28;20205;-85
2021/03/08 04:04:49;;;;;;;11.93;5.28;;;2.30;99.90;;;;;;4986713;28;20210;-84
2021/03/08 04:07:18;;;;;;;27.02;7.38;;;2.30;99.90;;;;;;4979713;28;20203;-84
2021/03/08 04:09:49;;;;;;;10.43;6.18;;;2.30;99.90;;;;;;4987880;28;20230;-84
2021/03/08 04:12:18;;;;;;;14.38;6.40;;;2.30;99.90;;;;;;4979659;28;20243;-84
2021/03/08 04:14:50;;;;;;;22.23;6.78;;;2.30;99.90;;;;;;4983972;28;20293;-83
2021/03/08 04:17:18;;;;;;;13.57;6.95;;;2.30;99.90;;;;;;4989527;28;20221;-85
2021/03/08 04:19:45;;;;;;;14.77;5.30;;;2.20;99.90;;;;;;4996870;28;20305;-83
2021/03/08 04:22:12;;;;;;;15.02;6.20;;;2.10;99.90;;;;;;4991338;28;20199;-84
2021/03/08 04:24:41;;;;;;;14.60;6.22;;;2.10;99.90;;;;;;4985431;28;20289;-85
2021/03/08 04:27:11;;;;;;;16.60;6.70;;;2.10;99.90;;;;;;4986428;28;20234;-84
2021/03/08 04:29:39;;;;;;;15.77;6.30;;;2.10;99.90;;;;;;4984906;28;20310;-85
2021/03/08 04:32:07;;;;;;;12.07;5.43;;;2.00;99.90;;;;;;4984283;28;20209;-84
2021/03/08 04:34:36;;;;;;;18.45;7.35;;;2.00;99.90;;;;;;4982865;28;20206;-84
2021/03/08 04:37:03;;;;;;;14.23;6.18;;;2.00;99.90;;;;;;4986031;28;20229;-84
2021/03/08 04:39:33;;;;;;;11.13;5.50;;;1.90;99.90;;;;;;4986023;28;20769;-86
2021/03/08 04:42:00;;;;;;;19.13;6.28;;;1.90;99.90;;;;;;4986234;28;20214;-84
2021/03/08 04:44:28;;;;;;;15.00;6.22;;;1.90;99.90;;;;;;4981312;28;20258;-83
2021/03/08 04:46:56;;;;;;;21.83;7.65;;;1.90;99.90;;;;;;4985398;28;20324;-84
2021/03/08 04:49:23;;;;;;;18.10;6.18;;;1.90;99.90;;;;;;4986560;28;20311;-82
2021/03/08 04:51:52;;;;;;;15.68;5.50;;;1.90;99.90;;;;;;4985064;28;20218;-84
2021/03/08 04:54:19;;;;;;;21.50;7.75;;;1.90;99.90;;;;;;4988632;28;20199;-83
2021/03/08 04:56:48;;;;;;;12.57;6.75;;;1.80;99.90;;;;;;4984909;28;20344;-83
2021/03/08 04:59:15;;;;;;;20.98;6.80;;;1.80;99.90;;;;;;4986839;28;20225;-84
2021/03/08 05:01:46;;;;;;;16.90;6.53;;;1.80;99.90;;;;;;4986614;28;20266;-84
2021/03/08 05:04:14;;;;;;;15.55;8.35;;;1.70;99.90;;;;;;4987457;28;20631;-85
2021/03/08 05:06:44;;;;;;;22.73;7.50;;;1.60;99.90;;;;;;4997086;28;20198;-85
2021/03/08 05:09:13;;;;;;;11.95;6.22;;;1.50;99.90;;;;;;4996715;28;20218;-84
2021/03/08 05:11:41;;;;;;;15.93;7.47;;;1.60;99.90;;;;;;4988006;28;20261;-85
2021/03/08 05:14:10;;;;;;;28.48;7.18;;;1.60;99.90;;;;;;4986976;28;20206;-84
2021/03/08 05:16:41;;;;;;;13.95;6.20;;;1.60;99.90;;;;;;4980612;28;20329;-84
2021/03/08 05:19:09;;;;;;;11.45;6.47;;;1.60;99.90;;;;;;4980875;28;20242;-85
2021/03/08 05:21:36;;;;;;;12.88;6.28;;;1.60;99.90;;;;;;4988872;28;20232;-84
2021/03/08 05:24:05;;;;;;;15.88;6.47;;;1.50;99.90;;;;;;4983528;28;20262;-83
2021/03/08 05:26:32;;;;;;;17.67;6.78;;;1.50;99.90;;;;;;4986448;28;20266;-84
2021/03/08 05:29:01;;;;;;;12.15;6.68;;;1.50;99.90;;;;;;4983789;28;20246;-84
2021/03/08 05:31:32;;;;;;;18.73;8.05;;;1.50;99.90;;;;;;4982412;28;20264;-83
2021/03/08 05:34:01;;;;;;;9.50;6.05;;;1.50;99.90;;;;;;4988545;28;20234;-84
2021/03/08 05:36:33;;;;;;;15.15;7.15;;;1.40;99.90;;;;;;4991800;28;20267;-83
2021/03/08 05:39:02;;;;;;;17.40;7.10;;;1.40;99.90;;;;;;4979833;28;20235;-83
2021/03/08 05:41:32;;;;;;;8.43;5.60;;;1.40;99.90;;;;;;4981580;28;20206;-82
2021/03/08 05:44:03;;;;;;;16.58;6.63;;;1.40;99.90;;;;;;4995828;28;20220;-84
2021/03/08 05:46:52;;;;;;;15.68;6.82;;;1.40;99.90;;;;;;4989875;28;20254;-84
2021/03/08 05:49:35;;;;;;;18.23;8.70;;;1.40;99.90;;;;;;4990441;28;20305;-84
2021/03/08 05:52:54;;;;;;;20.88;6.63;;;1.30;99.90;;;;;;4985080;28;20221;-83
2021/03/08 05:55:49;;;;;;;13.63;7.30;;;1.40;99.90;;;;;;4993523;28;20227;-83
2021/03/08 05:58:29;;;;;;;15.82;7.38;;;1.40;99.90;;;;;;4984373;28;20237;-83
2021/03/08 06:01:10;;;;;;;14.77;7.43;;;1.40;99.90;;;;;;4980473;28;20226;-84
2021/03/08 06:03:53;;;;;;;9.23;6.53;;;1.30;99.90;;;;;;4985539;28;20310;-84
2021/03/08 06:07:01;;;;;;;17.83;7.57;;;1.40;99.90;;;;;;4992600;28;20210;-84
2021/03/08 06:09:46;;;;;;;11.02;6.90;;;1.40;99.90;;;;;;4987876;28;20346;-85
2021/03/08 06:12:23;;;;;;;11.80;6.22;;;1.40;99.90;;;;;;4990388;28;20229;-86
2021/03/08 06:14:53;;;;;;;12.57;6.72;;;1.50;99.90;;;;;;4990215;28;20229;-86
2021/03/08 06:17:21;;;;;;;14.90;6.43;;;1.50;99.90;;;;;;4985693;28;20294;-85
2021/03/08 06:19:49;;;;;;;11.32;7.03;;;1.60;99.90;;;;;;4987642;28;20228;-87
2021/03/08 06:22:21;;;;;;;16.17;6.00;;;1.60;99.90;;;;;;4988195;28;20277;-85
2021/03/08 06:24:53;;;;;;;16.10;8.02;;;1.70;99.90;;;;;;4975001;28;20225;-86
2021/03/08 06:27:22;;;;;;;10.48;6.95;;;1.70;99.90;;;;;;4979244;28;20586;-86
2021/03/08 06:29:48;;;;;;;17.70;6.72;;;1.80;99.90;;;;;;4982133;28;20222;-88
2021/03/08 06:32:15;;;;;;;18.27;7.13;;;1.80;99.90;;;;;;4977213;28;20222;-84
2021/03/08 06:34:42;;;;;;;12.00;6.70;;;1.90;99.90;;;;;;4971013;28;20262;-86
2021/03/08 06:37:11;;;;;;;11.48;5.70;;;1.90;99.90;;;;;;4987797;28;20623;-83
2021/03/08 06:39:40;;;;;;;11.25;5.97;;;2.00;99.90;;;;;;4984350;28;20681;-83
2021/03/08 06:42:09;;;;;;;12.95;5.93;;;2.00;99.90;;;;;;4977394;28;20220;-83
2021/03/08 06:44:36;;;;;;;21.92;6.18;;;2.10;99.90;;;;;;4985264;28;20286;-85
2021/03/08 06:47:05;;;;;;;13.63;7.68;;;2.10;99.90;;;;;;4994739;28;20376;-84
2021/03/08 06:49:32;;;;;;;7.97;5.30;;;2.20;99.90;;;;;;4992396;28;20312;-82
2021/03/08 06:52:03;;;;;;;11.00;5.85;;;2.30;99.90;;;;;;4983680;28;20298;-85
2021/03/08 06:54:30;;;;;;;13.25;5.40;;;2.10;99.90;;;;;;4975971;28;20222;-83
2021/03/08 06:56:57;;;;;;;11.20;5.18;;;2.60;99.90;;;;;;4987017;28;20233;-85
2021/03/08 06:59:25;;;;;;;9.35;4.60;;;3.10;99.90;;;;;;4987794;28;20220;-85
2021/03/08 07:01:53;;;;;;;11.93;3.47;;;3.90;99.90;;;;;;4983878;28;20217;-85
2021/03/08 07:04:22;;;;;;;11.48;5.50;;;4.70;99.90;;;;;;4988042;28;20237;-85
2021/03/08 07:06:59;;;;;;;9.02;4.63;;;5.60;99.90;;;;;;4991159;28;20301;-85
2021/03/08 07:09:26;;;;;;;7.68;4.30;;;6.80;99.90;;;;;;4978453;28;20228;-85
2021/03/08 07:12:10;;;;;;;13.50;4.50;;;7.50;99.90;;;;;;4990355;28;20308;-85
2021/03/08 07:14:39;;;;;;;16.25;4.03;;;8.10;99.90;;;;;;4993023;28;20271;-85
2021/03/08 07:17:29;;;;;;;6.40;3.88;;;8.70;98.00;;;;;;4995421;28;20267;-86
2021/03/08 07:20:01;;;;;;;10.05;4.18;;;10.00;95.60;;;;;;4985004;28;20227;-87
2021/03/08 07:22:41;;;;;;;11.50;3.80;;;10.80;93.10;;;;;;4993530;28;20608;-86
2021/03/08 07:25:17;;;;;;;11.20;4.50;;;11.90;90.20;;;;;;4985776;28;20350;-84
2021/03/08 07:27:45;;;;;;;7.53;4.63;;;12.70;87.00;;;;;;4990222;28;20268;-85
2021/03/08 07:30:23;;;;;;;6.90;3.53;;;13.00;82.50;;;;;;4983543;28;20225;-88
2021/03/08 07:32:55;;;;;;;9.52;2.80;;;13.30;81.30;;;;;;4991654;28;20225;-85
2021/03/08 07:35:34;;;;;;;10.18;4.38;;;13.50;79.40;;;;;;4987615;28;20210;-86
2021/03/08 07:38:01;;;;;;;6.88;3.28;;;14.10;78.10;;;;;;4986641;28;20214;-86
2021/03/08 07:40:28;;;;;;;7.57;3.50;;;13.90;76.70;;;;;;4995735;28;20198;-87
2021/03/08 07:42:56;;;;;;;9.15;3.38;;;14.10;75.00;;;;;;4998555;28;20243;-84
2021/03/08 07:45:39;;;;;;;9.05;4.38;;;13.90;74.70;;;;;;4977396;28;20223;-86
2021/03/08 07:48:11;;;;;;;9.45;5.95;;;14.00;74.20;;;;;;4986661;28;20254;-86
2021/03/08 07:50:38;;;;;;;6.60;3.88;;;14.30;71.90;;;;;;4989659;28;20202;-85
2021/03/08 07:53:28;;;;;;;4.25;2.55;;;14.30;71.80;;;;;;4994346;28;20258;-86
2021/03/08 07:55:56;;;;;;;5.88;3.65;;;15.10;70.20;;;;;;4987531;28;20204;-85
2021/03/08 07:58:26;;;;;;;7.45;3.78;;;14.90;70.00;;;;;;4994959;28;20219;-85
2021/03/08 08:00:54;;;;;;;8.73;3.95;;;14.50;69.50;;;;;;4993101;28;20230;-85
2021/03/08 08:03:21;;;;;;;8.15;3.75;;;14.70;72.10;;;;;;4995854;28;20222;-85
2021/03/08 08:08:39;;;;;;;7.25;3.63;;;15.10;68.90;;;;;;4982167;28;20287;-86
2021/03/08 08:11:08;;;;;;;6.50;2.72;;;14.90;68.60;;;;;;4983147;28;20197;-84
2021/03/08 08:13:40;;;;;;;4.47;2.92;;;15.40;68.30;;;;;;4994697;28;20197;-86
2021/03/08 08:16:09;;;;;;;12.75;3.03;;;15.70;65.30;;;;;;4993170;28;20212;-86
2021/03/08 08:18:40;;;;;;;4.10;2.97;;;15.50;64.40;;;;;;4990617;28;20255;-84
2021/03/08 08:21:10;;;;;;;6.57;2.75;;;15.40;66.40;;;;;;4998839;28;20212;-85
2021/03/08 08:23:44;;;;;;;5.45;2.83;;;15.60;64.10;;;;;;4995926;28;20190;-85
2021/03/08 08:26:15;;;;;;;4.87;2.40;;;16.40;62.20;;;;;;4991696;28;20339;-83
2021/03/08 08:28:44;;;;;;;5.53;2.40;;;17.40;61.50;;;;;;4993875;28;20479;-85
2021/03/08 08:33:57;;;;;;;11.30;3.40;;;18.20;57.80;;;;;;4998741;28;20453;-86
2021/03/08 08:36:27;;;;;;;5.73;2.83;;;17.30;58.30;;;;;;4994781;28;20457;-86
2021/03/08 08:42:23;;;;;;;4.53;3.00;;;18.20;57.50;;;;;;4999082;28;20585;-85
2021/03/08 08:44:51;;;;;;;4.27;2.83;;;18.40;57.10;;;;;;5000465;28;20469;-86
2021/03/08 08:47:26;;;;;;;7.57;2.57;;;17.90;57.30;;;;;;5000560;28;20469;-85
2021/03/08 08:52:53;;;;;;;5.80;2.05;;;16.60;56.10;;;;;;4999828;28;20520;-85
2021/03/08 08:55:45;;;;;;;4.60;2.73;;;16.40;56.80;;;;;;5000488;28;20273;-87
2021/03/08 08:58:27;;;;;;;6.37;3.50;;;16.20;57.40;;;;;;4998048;28;20503;-86
2021/03/08 09:01:37;;;;;;;6.10;2.80;;;16.20;57.60;;;;;;4973434;28;20918;-86
2021/03/08 09:04:07;;;;;;;8.00;4.23;;;18.00;55.60;;;;;;4994786;28;20491;-86
2021/03/08 09:06:45;;;;;;;8.03;3.63;;;17.70;54.10;;;;;;4989195;28;20462;-85
2021/03/08 09:09:13;;;;;;;6.30;3.37;;;17.40;54.50;;;;;;4986531;28;20504;-86
2021/03/08 09:11:46;;;;;;;6.97;3.67;;;16.60;56.00;;;;;;4989011;28;20484;-86
2021/03/08 09:14:41;;;;;;;6.57;2.50;;;15.70;55.70;;;;;;4989913;28;20536;-85
2021/03/08 09:17:18;;;;;;;4.10;2.20;;;15.70;57.50;;;;;;4991398;28;20479;-86
2021/03/08 09:19:48;;;;;;;6.57;3.00;;;15.70;57.20;;;;;;4981395;28;20317;-85
2021/03/08 09:22:47;;;;;;;8.37;2.60;;;15.60;55.40;;;;;;4983941;28;20555;-86
2021/03/08 09:25:18;;;;;;;7.30;3.00;;;15.00;56.50;;;;;;4979309;28;20479;-86
2021/03/08 09:27:47;;;;;;;5.50;2.65;;;15.50;57.00;;;;;;4991396;28;20269;-85
2021/03/08 09:30:16;;;;;;;5.93;2.90;;;15.70;55.60;;;;;;4991072;28;20249;-86
2021/03/08 09:32:52;;;;;;;9.30;3.73;;;16.20;55.20;;;;;;4975540;28;20459;-86
2021/03/08 09:35:46;;;;;;;4.80;2.50;;;16.40;55.50;;;;;;4992964;28;20456;-86
2021/03/08 09:38:16;;;;;;;5.32;2.00;;;16.20;54.60;;;;;;4990586;28;20457;-85
2021/03/08 09:40:44;;;;;;;3.42;2.10;;;16.20;54.60;;;;;;4982244;28;20203;-85
2021/03/08 09:43:22;;;;;;;6.25;2.40;;;16.10;52.80;;;;;;4989634;28;20248;-85
2021/03/08 09:45:57;;;;;;;7.32;2.75;;;15.20;53.60;;;;;;4999181;28;20232;-85
2021/03/08 09:48:24;;;;;;;6.03;2.70;;;15.20;53.80;;;;;;4996627;28;20225;-85
2021/03/08 09:50:52;;;;;;;7.20;2.65;;;15.40;54.80;;;;;;4993224;28;20220;-85
2021/03/08 09:53:20;;;;;;;5.80;3.00;;;15.40;54.60;;;;;;4990597;28;20696;-85
2021/03/08 09:55:47;;;;;;;9.85;2.72;;;15.50;55.30;;;;;;4995916;28;20212;-85
2021/03/08 09:58:22;;;;;;;6.37;2.50;;;15.70;55.10;;;;;;4995942;28;20255;-86
2021/03/08 10:00:51;;;;;;;6.00;3.63;;;15.80;53.10;;;;;;4991848;28;20519;-85
2021/03/08 10:03:18;;;;;;;5.40;2.80;;;15.40;53.80;;;;;;4986961;28;20484;-85
2021/03/08 10:05:47;;;;;;;15.77;4.13;;;14.90;55.10;;;;;;4994537;28;21026;-84
2021/03/08 10:08:17;;;;;;;9.15;2.83;;;14.50;55.70;;;;;;4979508;28;20230;-85
2021/03/08 10:10:48;;;;;;;11.27;3.40;;;14.00;57.30;;;;;;4984137;28;20253;-85
2021/03/08 10:13:17;;;;;;;6.53;2.55;;;14.40;56.80;;;;;;4992509;28;20571;-85
2021/03/08 10:15:49;;;;;;;8.60;2.30;;;14.60;55.80;;;;;;4992341;28;20207;-84
2021/03/08 10:18:18;;;;;;;5.88;2.60;;;15.10;55.10;;;;;;4984972;28;20288;-86
2021/03/08 10:20:49;;;;;;;7.13;2.30;;;15.20;54.00;;;;;;4986569;28;20365;-85
2021/03/08 10:23:21;;;;;;;7.85;2.85;;;14.30;55.60;;;;;;4979761;28;20226;-85
2021/03/08 10:25:48;;;;;;;4.63;2.53;;;14.50;54.70;;;;;;4979333;28;20215;-82
2021/03/08 10:28:16;;;;;;;6.00;2.65;;;14.80;56.40;;;;;;4994480;28;20237;-85
2021/03/08 10:30:43;;;;;;;4.88;2.50;;;13.80;54.30;;;;;;4988603;28;20202;-83
2021/03/08 10:33:13;;;;;;;7.38;3.05;;;14.80;56.00;;;;;;4984254;28;20211;-86
2021/03/08 10:35:42;;;;;;;3.03;1.85;;;14.50;55.10;;;;;;4987137;28;20230;-86
2021/03/08 10:38:09;;;;;;;6.93;2.97;;;14.20;54.10;;;;;;4978448;28;20198;-85
2021/03/08 10:40:37;;;;;;;3.67;1.40;;;13.80;53.50;;;;;;4987673;28;20301;-86
2021/03/08 10:43:04;;;;;;;2.45;1.50;;;13.70;52.00;;;;;;4985822;28;20214;-86
2021/03/08 10:45:31;;;;;;;5.68;1.98;;;13.70;53.70;;;;;;4987007;28;20252;-85
2021/03/08 10:48:09;;;;;;;4.90;2.22;;;13.60;53.30;;;;;;4985664;28;20288;-86
2021/03/08 10:50:45;;;;;;;4.07;2.05;;;12.40;53.00;;;;;;4966597;28;20219;-84
2021/03/08 10:53:12;;;;;;;4.45;2.30;;;11.00;54.70;;;;;;4985289;28;20311;-86
2021/03/08 10:55:40;;;;;;;3.50;1.90;;;11.20;56.30;;;;;;4986382;28;20206;-85
2021/03/08 10:58:07;;;;;;;4.75;1.80;;;11.10;55.20;;;;;;4979030;28;20266;-84
2021/03/08 11:00:34;;;;;;;3.53;1.50;;;10.70;54.60;;;;;;4991355;28;20269;-84
2021/03/08 11:03:01;;;;;;;3.00;1.50;;;10.80;53.80;;;;;;4986427;28;20201;-81
2021/03/08 11:05:29;;;;;;;6.53;2.17;;;10.70;54.20;;;;;;4985345;28;20236;-82
2021/03/08 11:07:56;;;;;;;5.03;1.65;;;10.50;53.60;;;;;;4995921;28;20190;-83
2021/03/08 11:10:37;;;;;;;9.73;1.77;;;10.10;53.80;;;;;;4991906;28;20190;-83
2021/03/08 11:13:08;;;;;;;5.60;2.42;;;10.30;54.70;;;;;;4979171;28;20209;-85
2021/03/08 11:15:35;;;;;;;2.97;1.15;;;10.30;52.60;;;;;;4976139;28;20225;-86
2021/03/08 11:18:03;;;;;;;3.72;2.15;;;10.20;52.90;;;;;;4974530;28;20211;-87
2021/03/08 11:20:35;;;;;;;2.70;1.10;;;10.10;53.30;;;;;;4977625;28;20262;-85
2021/03/08 11:23:03;;;;;;;1.85;1.30;;;10.30;50.10;;;;;;4978084;28;20233;-83
2021/03/08 11:25:36;;;;;;;2.47;1.10;;;10.00;48.00;;;;;;4988105;28;20244;-85
2021/03/08 11:28:06;;;;;;;1.70;0.85;;;9.60;49.30;;;;;;4986237;28;20230;-85
2021/03/08 11:30:34;;;;;;;2.17;1.02;;;9.60;49.10;;;;;;4969500;28;20198;-83
2021/03/08 11:33:02;;;;;;;2.35;0.98;;;9.60;48.60;;;;;;4974222;28;20293;-84
2021/03/08 11:35:32;;;;;;;2.28;1.27;;;9.40;48.90;;;;;;4974047;28;20228;-84
2021/03/08 11:38:06;;;;;;;3.97;1.20;;;9.20;51.20;;;;;;4974888;28;20198;-83
2021/03/08 11:40:35;;;;;;;1.85;1.08;;;9.30;51.30;;;;;;4980929;28;20275;-84
2021/03/08 11:43:03;;;;;;;2.67;1.38;;;9.30;49.60;;;;;;4985645;28;20285;-85
2021/03/08 11:45:31;;;;;;;2.63;1.30;;;9.20;48.10;;;;;;4977499;28;20223;-84
2021/03/08 11:48:01;;;;;;;1.73;1.00;;;9.20;49.00;;;;;;4968704;28;20214;-85
2021/03/08 11:50:30;;;;;;;1.75;1.20;;;9.10;45.30;;;;;;4984281;28;20218;-85
2021/03/08 11:52:58;;;;;;;2.42;1.40;;;9.10;44.60;;;;;;4978064;28;20414;-85
2021/03/08 11:55:25;;;;;;;4.40;1.65;;;9.00;45.90;;;;;;4970237;28;20201;-84
2021/03/08 11:57:52;;;;;;;2.20;0.95;;;8.90;47.20;;;;;;4979558;28;20294;-85
2021/03/08 12:00:21;;;;;;;2.28;1.05;;;8.90;48.10;;;;;;4981428;28;20214;-85
2021/03/08 12:02:50;;;;;;;6.05;2.65;;;8.80;47.90;;;;;;4974504;28;20211;-85
2021/03/08 12:05:17;;;;;;;3.60;1.95;;;8.80;48.30;;;;;;4979384;28;20218;-85
2021/03/08 12:07:44;;;;;;;1.70;1.10;;;8.60;46.40;;;;;;4978186;28;20380;-84
2021/03/08 12:10:13;;;;;;;3.00;1.60;;;8.70;46.50;;;;;;4975187;28;20222;-86
2021/03/08 12:12:40;;;;;;;1.92;1.02;;;8.80;49.80;;;;;;4980894;28;20220;-84
2021/03/08 12:15:08;;;;;;;2.15;1.23;;;8.80;50.80;;;;;;4971990;28;20202;-86
2021/03/08 12:17:35;;;;;;;10.65;4.30;;;8.60;52.70;;;;;;4977065;28;20254;-86
2021/03/08 12:20:05;;;;;;;3.95;1.63;;;8.70;54.00;;;;;;4985096;28;20235;-83
2021/03/08 12:22:31;;;;;;;3.13;2.33;;;8.80;54.50;;;;;;4986870;28;20301;-85
2021/03/08 12:24:58;;;;;;;2.65;1.35;;;8.50;55.10;;;;;;4989109;28;20221;-85
2021/03/08 12:27:26;;;;;;;2.55;1.33;;;8.50;55.20;;;;;;4992013;28;20239;-85
2021/03/08 12:29:52;;;;;;;3.47;1.42;;;8.80;56.40;;;;;;4983825;28;20703;-85
2021/03/08 12:32:20;;;;;;;7.40;1.60;;;8.70;54.90;;;;;;4991529;28;20211;-85
2021/03/08 12:34:46;;;;;;;6.20;2.38;;;8.50;55.70;;;;;;4991549;28;20216;-85
2021/03/08 12:37:17;;;;;;;7.75;1.75;;;8.50;56.80;;;;;;4991561;28;20225;-86
2021/03/08 12:39:44;;;;;;;3.78;1.13;;;8.40;58.60;;;;;;4983246;28;20233;-85
2021/03/08 12:42:11;;;;;;;2.22;1.50;;;8.40;57.50;;;;;;4993372;28;20220;-85
2021/03/08 12:44:37;;;;;;;2.22;1.10;;;8.50;56.80;;;;;;4991009;28;20324;-84
2021/03/08 12:47:05;;;;;;;4.63;1.45;;;8.30;56.40;;;;;;4981701;28;20228;-85
2021/03/08 12:49:31;;;;;;;3.70;1.90;;;8.20;56.80;;;;;;4989808;28;20217;-86
2021/03/08 12:51:58;;;;;;;2.92;1.42;;;8.30;58.20;;;;;;4990675;28;20236;-85
2021/03/08 12:54:26;;;;;;;2.60;1.50;;;8.30;57.90;;;;;;4991180;28;20249;-84
2021/03/08 12:56:53;;;;;;;4.55;1.10;;;8.30;57.50;;;;;;4986632;28;20189;-85
2021/03/08 12:59:20;;;;;;;2.10;1.20;;;8.30;56.60;;;;;;4992665;28;20224;-85
2021/03/08 13:01:47;;;;;;;3.30;1.23;;;8.40;55.90;;;;;;4984565;28;20225;-85
2021/03/08 13:04:14;;;;;;;3.60;1.80;;;8.50;56.00;;;;;;4981045;28;20701;-85
2021/03/08 13:06:40;;;;;;;3.25;2.35;;;8.20;56.40;;;;;;4972530;28;20214;-84
2021/03/08 13:09:07;;;;;;;1.42;0.88;;;8.00;55.90;;;;;;4978288;28;20229;-85
2021/03/08 13:11:35;;;;;;;3.13;1.10;;;8.00;55.10;;;;;;4989460;28;20274;-84
2021/03/08 13:14:01;;;;;;;3.92;1.00;;;8.20;54.80;;;;;;4975901;28;20255;-84
2021/03/08 13:16:28;;;;;;;1.67;1.17;;;8.10;53.70;;;;;;4986065;28;20284;-84
2021/03/08 13:18:55;;;;;;;1.55;1.05;;;8.00;52.40;;;;;;4999313;28;20302;-83